sensor_id;sensor_type;location;lat;lon;timestamp;P1;durP1;ratioP1;P2;durP2;ratioP2
66089;SDS011;53113;45.602;11.904;2022-07-23T00:02:06;18.80;;;16.50;;
66089;SDS011;53113;45.602;11.904;2022-07-23T00:04:33;20.40;;;15.70;;
66089;SDS011;53113;45.602;11.904;2022-07-23T00:06:59;20.00;;;16.40;;
66089;SDS011;53113;45.602;11.904;2022-07-23T00:09:25;17.80;;;15.70;;
66089;SDS011;53113;45.602;11.904;2022-07-23T00:11:51;18.60;;;16.60;;
66089;SDS011;53113;45.602;11.904;2022-07-23T00:14:17;19.60;;;16.00;;
66089;SDS011;53113;45.602;11.904;2022-07-23T00:16:42;18.00;;;16.10;;
66089;SDS011;53113;45.602;11.904;2022-07-23T00:19:08;22.30;;;15.70;;
66089;SDS011;53113;45.602;11.904;2022-07-23T00:21:34;17.60;;;15.70;;
66089;SDS011;53113;45.602;11.904;2022-07-23T00:23:59;20.60;;;15.40;;
66089;SDS011;53113;45.602;11.904;2022-07-23T00:26:25;19.00;;;15.50;;
66089;SDS011;53113;45.602;11.904;2022-07-23T00:28:54;20.10;;;17.00;;
66089;SDS011;53113;45.602;11.904;2022-07-23T00:33:45;18.40;;;16.50;;
66089;SDS011;53113;45.602;11.904;2022-07-23T00:36:10;18.40;;;16.30;;
66089;SDS011;53113;45.602;11.904;2022-07-23T00:38:36;19.70;;;17.60;;
66089;SDS011;53113;45.602;11.904;2022-07-23T00:41:02;20.00;;;17.20;;
66089;SDS011;53113;45.602;11.904;2022-07-23T00:43:28;18.70;;;16.50;;
66089;SDS011;53113;45.602;11.904;2022-07-23T00:45:54;20.70;;;16.90;;
66089;SDS011;53113;45.602;11.904;2022-07-23T00:48:19;18.90;;;16.90;;
66089;SDS011;53113;45.602;11.904;2022-07-23T00:50:45;20.50;;;18.40;;
66089;SDS011;53113;45.602;11.904;2022-07-23T00:53:11;24.10;;;17.90;;
66089;SDS011;53113;45.602;11.904;2022-07-23T00:55:37;21.10;;;18.40;;
66089;SDS011;53113;45.602;11.904;2022-07-23T00:58:03;20.30;;;18.20;;
66089;SDS011;53113;45.602;11.904;2022-07-23T01:00:30;20.50;;;18.30;;
66089;SDS011;53113;45.602;11.904;2022-07-23T01:02:56;20.20;;;18.00;;
66089;SDS011;53113;45.602;11.904;2022-07-23T01:05:22;21.70;;;19.50;;
66089;SDS011;53113;45.602;11.904;2022-07-23T01:07:49;23.50;;;18.20;;
66089;SDS011;53113;45.602;11.904;2022-07-23T01:10:16;22.10;;;19.60;;
66089;SDS011;53113;45.602;11.904;2022-07-23T01:12:58;19.60;;;17.50;;
66089;SDS011;53113;45.602;11.904;2022-07-23T01:15:33;22.80;;;20.40;;
66089;SDS011;53113;45.602;11.904;2022-07-23T01:18:00;22.20;;;20.00;;
66089;SDS011;53113;45.602;11.904;2022-07-23T01:20:27;22.50;;;19.40;;
66089;SDS011;53113;45.602;11.904;2022-07-23T01:22:53;22.60;;;19.60;;
66089;SDS011;53113;45.602;11.904;2022-07-23T01:25:19;23.10;;;20.70;;
66089;SDS011;53113;45.602;11.904;2022-07-23T01:27:45;23.50;;;21.10;;
66089;SDS011;53113;45.602;11.904;2022-07-23T01:30:11;23.10;;;20.10;;
66089;SDS011;53113;45.602;11.904;2022-07-23T01:32:38;23.70;;;19.60;;
66089;SDS011;53113;45.602;11.904;2022-07-23T01:35:04;25.20;;;21.50;;
66089;SDS011;53113;45.602;11.904;2022-07-23T01:37:31;25.00;;;20.00;;
66089;SDS011;53113;45.602;11.904;2022-07-23T01:39:56;21.30;;;19.10;;
66089;SDS011;53113;45.602;11.904;2022-07-23T01:42:22;23.60;;;21.30;;
66089;SDS011;53113;45.602;11.904;2022-07-23T01:44:49;24.80;;;22.00;;
66089;SDS011;53113;45.602;11.904;2022-07-23T01:47:14;25.30;;;22.80;;
66089;SDS011;53113;45.602;11.904;2022-07-23T01:49:40;26.70;;;24.00;;
66089;SDS011;53113;45.602;11.904;2022-07-23T01:52:06;25.90;;;22.20;;
66089;SDS011;53113;45.602;11.904;2022-07-23T01:54:36;25.40;;;22.90;;
66089;SDS011;53113;45.602;11.904;2022-07-23T01:57:04;22.60;;;20.40;;
66089;SDS011;53113;45.602;11.904;2022-07-23T01:59:30;24.80;;;22.00;;
66089;SDS011;53113;45.602;11.904;2022-07-23T02:01:56;25.40;;;22.80;;
66089;SDS011;53113;45.602;11.904;2022-07-23T02:04:23;26.00;;;23.30;;
66089;SDS011;53113;45.602;11.904;2022-07-23T02:06:50;25.70;;;23.00;;
66089;SDS011;53113;45.602;11.904;2022-07-23T02:09:16;26.40;;;23.70;;
66089;SDS011;53113;45.602;11.904;2022-07-23T02:11:42;27.20;;;24.60;;
66089;SDS011;53113;45.602;11.904;2022-07-23T02:14:08;24.60;;;22.10;;
66089;SDS011;53113;45.602;11.904;2022-07-23T02:16:34;23.20;;;20.80;;
66089;SDS011;53113;45.602;11.904;2022-07-23T02:19:00;23.40;;;20.90;;
66089;SDS011;53113;45.602;11.904;2022-07-23T02:21:26;23.60;;;21.20;;
66089;SDS011;53113;45.602;11.904;2022-07-23T02:23:52;23.40;;;20.90;;
66089;SDS011;53113;45.602;11.904;2022-07-23T02:26:18;22.80;;;20.40;;
66089;SDS011;53113;45.602;11.904;2022-07-23T02:28:43;24.40;;;21.80;;
66089;SDS011;53113;45.602;11.904;2022-07-23T02:31:09;23.90;;;21.40;;
66089;SDS011;53113;45.602;11.904;2022-07-23T02:33:35;24.10;;;21.70;;
66089;SDS011;53113;45.602;11.904;2022-07-23T02:36:01;23.90;;;21.50;;
66089;SDS011;53113;45.602;11.904;2022-07-23T02:38:26;23.60;;;21.10;;
66089;SDS011;53113;45.602;11.904;2022-07-23T02:40:52;23.20;;;20.90;;
66089;SDS011;53113;45.602;11.904;2022-07-23T02:43:18;24.00;;;21.50;;
66089;SDS011;53113;45.602;11.904;2022-07-23T02:45:43;24.60;;;21.20;;
66089;SDS011;53113;45.602;11.904;2022-07-23T02:48:09;24.50;;;21.10;;
66089;SDS011;53113;45.602;11.904;2022-07-23T02:53:03;22.90;;;20.10;;
66089;SDS011;53113;45.602;11.904;2022-07-23T02:55:30;21.70;;;19.40;;
66089;SDS011;53113;45.602;11.904;2022-07-23T02:57:56;22.40;;;20.10;;
66089;SDS011;53113;45.602;11.904;2022-07-23T03:00:22;24.30;;;20.40;;
66089;SDS011;53113;45.602;11.904;2022-07-23T03:02:48;21.40;;;19.20;;
66089;SDS011;53113;45.602;11.904;2022-07-23T03:05:14;22.10;;;19.80;;
66089;SDS011;53113;45.602;11.904;2022-07-23T03:07:40;22.90;;;20.50;;
66089;SDS011;53113;45.602;11.904;2022-07-23T03:10:06;23.60;;;21.10;;
66089;SDS011;53113;45.602;11.904;2022-07-23T03:12:32;22.20;;;19.50;;
66089;SDS011;53113;45.602;11.904;2022-07-23T03:14:58;22.80;;;19.40;;
66089;SDS011;53113;45.602;11.904;2022-07-23T03:17:23;22.10;;;20.00;;
66089;SDS011;53113;45.602;11.904;2022-07-23T03:19:49;20.70;;;18.50;;
66089;SDS011;53113;45.602;11.904;2022-07-23T03:22:15;21.90;;;19.50;;
66089;SDS011;53113;45.602;11.904;2022-07-23T03:24:40;22.50;;;18.90;;
66089;SDS011;53113;45.602;11.904;2022-07-23T03:27:19;22.20;;;19.90;;
66089;SDS011;53113;45.602;11.904;2022-07-23T03:29:45;23.10;;;20.60;;
66089;SDS011;53113;45.602;11.904;2022-07-23T03:32:11;22.20;;;20.00;;
66089;SDS011;53113;45.602;11.904;2022-07-23T03:34:37;22.40;;;20.10;;
66089;SDS011;53113;45.602;11.904;2022-07-23T03:37:03;22.20;;;19.80;;
66089;SDS011;53113;45.602;11.904;2022-07-23T03:39:29;22.70;;;20.30;;
66089;SDS011;53113;45.602;11.904;2022-07-23T03:41:55;22.30;;;20.00;;
66089;SDS011;53113;45.602;11.904;2022-07-23T03:44:21;22.60;;;20.50;;
66089;SDS011;53113;45.602;11.904;2022-07-23T03:46:47;21.50;;;19.30;;
66089;SDS011;53113;45.602;11.904;2022-07-23T03:49:12;20.60;;;18.40;;
66089;SDS011;53113;45.602;11.904;2022-07-23T03:51:38;23.60;;;19.60;;
66089;SDS011;53113;45.602;11.904;2022-07-23T03:54:04;21.60;;;19.40;;
66089;SDS011;53113;45.602;11.904;2022-07-23T03:56:30;21.30;;;18.90;;
66089;SDS011;53113;45.602;11.904;2022-07-23T03:58:56;21.60;;;18.80;;
66089;SDS011;53113;45.602;11.904;2022-07-23T04:01:21;22.30;;;19.90;;
66089;SDS011;53113;45.602;11.904;2022-07-23T04:03:47;23.60;;;20.40;;
66089;SDS011;53113;45.602;11.904;2022-07-23T04:06:13;23.30;;;20.80;;
66089;SDS011;53113;45.602;11.904;2022-07-23T04:08:39;22.40;;;20.00;;
66089;SDS011;53113;45.602;11.904;2022-07-23T04:11:05;22.50;;;20.20;;
66089;SDS011;53113;45.602;11.904;2022-07-23T04:13:30;22.70;;;20.40;;
66089;SDS011;53113;45.602;11.904;2022-07-23T04:15:58;22.80;;;20.20;;
66089;SDS011;53113;45.602;11.904;2022-07-23T04:18:23;21.80;;;18.70;;
66089;SDS011;53113;45.602;11.904;2022-07-23T04:20:52;21.90;;;19.60;;
66089;SDS011;53113;45.602;11.904;2022-07-23T04:23:18;22.70;;;20.40;;
66089;SDS011;53113;45.602;11.904;2022-07-23T04:25:44;24.00;;;21.50;;
66089;SDS011;53113;45.602;11.904;2022-07-23T04:28:16;22.40;;;19.70;;
66089;SDS011;53113;45.602;11.904;2022-07-23T04:30:41;22.40;;;19.90;;
66089;SDS011;53113;45.602;11.904;2022-07-23T04:33:07;22.90;;;20.60;;
66089;SDS011;53113;45.602;11.904;2022-07-23T04:35:33;26.30;;;21.60;;
66089;SDS011;53113;45.602;11.904;2022-07-23T04:38:00;23.80;;;20.50;;
66089;SDS011;53113;45.602;11.904;2022-07-23T04:40:27;24.70;;;20.80;;
66089;SDS011;53113;45.602;11.904;2022-07-23T04:42:53;22.10;;;19.20;;
66089;SDS011;53113;45.602;11.904;2022-07-23T04:45:19;22.70;;;20.30;;
66089;SDS011;53113;45.602;11.904;2022-07-23T04:47:45;23.50;;;20.90;;
66089;SDS011;53113;45.602;11.904;2022-07-23T04:50:11;23.20;;;20.80;;
66089;SDS011;53113;45.602;11.904;2022-07-23T04:52:37;22.80;;;20.30;;
66089;SDS011;53113;45.602;11.904;2022-07-23T04:55:03;21.30;;;18.90;;
66089;SDS011;53113;45.602;11.904;2022-07-23T04:57:29;21.60;;;19.00;;
66089;SDS011;53113;45.602;11.904;2022-07-23T04:59:55;27.80;;;21.50;;
66089;SDS011;53113;45.602;11.904;2022-07-23T05:02:20;26.20;;;19.60;;
66089;SDS011;53113;45.602;11.904;2022-07-23T05:04:46;22.00;;;19.40;;
66089;SDS011;53113;45.602;11.904;2022-07-23T05:07:12;23.40;;;21.00;;
66089;SDS011;53113;45.602;11.904;2022-07-23T05:09:38;22.30;;;19.90;;
66089;SDS011;53113;45.602;11.904;2022-07-23T05:12:04;25.40;;;20.90;;
66089;SDS011;53113;45.602;11.904;2022-07-23T05:14:29;23.10;;;20.10;;
66089;SDS011;53113;45.602;11.904;2022-07-23T05:16:55;23.10;;;20.60;;
66089;SDS011;53113;45.602;11.904;2022-07-23T05:19:21;22.80;;;20.30;;
66089;SDS011;53113;45.602;11.904;2022-07-23T05:21:47;23.30;;;20.40;;
66089;SDS011;53113;45.602;11.904;2022-07-23T05:24:12;24.50;;;22.00;;
66089;SDS011;53113;45.602;11.904;2022-07-23T05:26:38;27.90;;;23.70;;
66089;SDS011;53113;45.602;11.904;2022-07-23T05:29:04;29.20;;;23.40;;
66089;SDS011;53113;45.602;11.904;2022-07-23T05:31:29;26.40;;;22.30;;
66089;SDS011;53113;45.602;11.904;2022-07-23T05:33:55;27.00;;;22.80;;
66089;SDS011;53113;45.602;11.904;2022-07-23T05:36:21;26.70;;;22.80;;
66089;SDS011;53113;45.602;11.904;2022-07-23T05:38:47;26.60;;;23.80;;
66089;SDS011;53113;45.602;11.904;2022-07-23T05:41:13;24.60;;;21.00;;
66089;SDS011;53113;45.602;11.904;2022-07-23T05:43:38;22.70;;;20.10;;
66089;SDS011;53113;45.602;11.904;2022-07-23T05:46:04;23.80;;;21.20;;
66089;SDS011;53113;45.602;11.904;2022-07-23T05:48:30;23.30;;;20.80;;
66089;SDS011;53113;45.602;11.904;2022-07-23T05:50:56;24.50;;;21.90;;
66089;SDS011;53113;45.602;11.904;2022-07-23T05:53:21;24.70;;;22.30;;
66089;SDS011;53113;45.602;11.904;2022-07-23T05:55:47;26.40;;;23.80;;
66089;SDS011;53113;45.602;11.904;2022-07-23T05:58:13;27.00;;;24.30;;
66089;SDS011;53113;45.602;11.904;2022-07-23T06:00:38;25.40;;;22.60;;
66089;SDS011;53113;45.602;11.904;2022-07-23T06:03:04;24.50;;;22.00;;
66089;SDS011;53113;45.602;11.904;2022-07-23T06:05:30;23.30;;;20.60;;
66089;SDS011;53113;45.602;11.904;2022-07-23T06:07:55;23.10;;;20.90;;
66089;SDS011;53113;45.602;11.904;2022-07-23T06:10:21;24.90;;;21.20;;
66089;SDS011;53113;45.602;11.904;2022-07-23T06:12:47;24.70;;;22.20;;
66089;SDS011;53113;45.602;11.904;2022-07-23T06:15:13;25.70;;;22.90;;
66089;SDS011;53113;45.602;11.904;2022-07-23T06:17:39;24.20;;;20.90;;
66089;SDS011;53113;45.602;11.904;2022-07-23T06:20:08;23.10;;;20.70;;
66089;SDS011;53113;45.602;11.904;2022-07-23T06:22:35;20.00;;;17.90;;
66089;SDS011;53113;45.602;11.904;2022-07-23T06:25:01;21.10;;;19.00;;
66089;SDS011;53113;45.602;11.904;2022-07-23T06:27:27;21.40;;;19.20;;
66089;SDS011;53113;45.602;11.904;2022-07-23T06:29:52;24.40;;;17.80;;
66089;SDS011;53113;45.602;11.904;2022-07-23T06:32:19;20.40;;;18.20;;
66089;SDS011;53113;45.602;11.904;2022-07-23T06:34:45;20.50;;;17.40;;
66089;SDS011;53113;45.602;11.904;2022-07-23T06:37:11;24.20;;;18.80;;
66089;SDS011;53113;45.602;11.904;2022-07-23T06:39:36;20.10;;;18.00;;
66089;SDS011;53113;45.602;11.904;2022-07-23T06:42:02;20.20;;;18.10;;
66089;SDS011;53113;45.602;11.904;2022-07-23T06:44:28;20.60;;;18.40;;
66089;SDS011;53113;45.602;11.904;2022-07-23T06:46:54;20.80;;;18.70;;
66089;SDS011;53113;45.602;11.904;2022-07-23T06:49:20;22.00;;;18.50;;
66089;SDS011;53113;45.602;11.904;2022-07-23T06:51:46;20.80;;;18.90;;
66089;SDS011;53113;45.602;11.904;2022-07-23T06:54:12;19.50;;;17.60;;
66089;SDS011;53113;45.602;11.904;2022-07-23T06:56:37;20.20;;;18.10;;
66089;SDS011;53113;45.602;11.904;2022-07-23T06:59:03;19.30;;;17.30;;
66089;SDS011;53113;45.602;11.904;2022-07-23T07:01:29;20.00;;;17.90;;
66089;SDS011;53113;45.602;11.904;2022-07-23T07:03:55;19.10;;;16.80;;
66089;SDS011;53113;45.602;11.904;2022-07-23T07:06:20;18.80;;;16.90;;
66089;SDS011;53113;45.602;11.904;2022-07-23T07:08:46;19.70;;;17.70;;
66089;SDS011;53113;45.602;11.904;2022-07-23T07:11:12;20.70;;;16.40;;
66089;SDS011;53113;45.602;11.904;2022-07-23T07:13:38;17.60;;;15.90;;
66089;SDS011;53113;45.602;11.904;2022-07-23T07:16:03;18.90;;;16.80;;
66089;SDS011;53113;45.602;11.904;2022-07-23T07:18:30;18.50;;;16.60;;
66089;SDS011;53113;45.602;11.904;2022-07-23T07:20:58;17.50;;;15.70;;
66089;SDS011;53113;45.602;11.904;2022-07-23T07:23:24;18.30;;;16.30;;
66089;SDS011;53113;45.602;11.904;2022-07-23T07:25:50;19.30;;;16.50;;
66089;SDS011;53113;45.602;11.904;2022-07-23T07:28:15;18.80;;;16.20;;
66089;SDS011;53113;45.602;11.904;2022-07-23T07:30:41;18.60;;;16.60;;
66089;SDS011;53113;45.602;11.904;2022-07-23T07:33:07;17.80;;;15.90;;
66089;SDS011;53113;45.602;11.904;2022-07-23T07:35:32;17.70;;;14.90;;
66089;SDS011;53113;45.602;11.904;2022-07-23T07:37:59;16.00;;;14.30;;
66089;SDS011;53113;45.602;11.904;2022-07-23T07:40:25;16.00;;;14.40;;
66089;SDS011;53113;45.602;11.904;2022-07-23T07:42:52;16.00;;;14.40;;
66089;SDS011;53113;45.602;11.904;2022-07-23T07:45:22;16.90;;;15.00;;
66089;SDS011;53113;45.602;11.904;2022-07-23T07:47:49;17.20;;;15.20;;
66089;SDS011;53113;45.602;11.904;2022-07-23T07:50:17;15.90;;;14.30;;
66089;SDS011;53113;45.602;11.904;2022-07-23T07:52:43;17.30;;;15.30;;
66089;SDS011;53113;45.602;11.904;2022-07-23T07:55:09;16.50;;;14.60;;
66089;SDS011;53113;45.602;11.904;2022-07-23T07:57:36;18.10;;;14.00;;
66089;SDS011;53113;45.602;11.904;2022-07-23T08:00:02;16.80;;;15.10;;
66089;SDS011;53113;45.602;11.904;2022-07-23T08:02:38;16.90;;;13.80;;
66089;SDS011;53113;45.602;11.904;2022-07-23T08:05:18;16.00;;;13.50;;
66089;SDS011;53113;45.602;11.904;2022-07-23T08:07:45;17.50;;;13.90;;
66089;SDS011;53113;45.602;11.904;2022-07-23T08:10:10;16.40;;;14.00;;
66089;SDS011;53113;45.602;11.904;2022-07-23T08:15:12;14.60;;;13.10;;
66089;SDS011;53113;45.602;11.904;2022-07-23T08:20:05;16.70;;;13.50;;
66089;SDS011;53113;45.602;11.904;2022-07-23T08:22:49;15.50;;;13.90;;
66089;SDS011;53113;45.602;11.904;2022-07-23T08:25:21;14.50;;;13.00;;
66089;SDS011;53113;45.602;11.904;2022-07-23T08:27:52;15.80;;;13.00;;
66089;SDS011;53113;45.602;11.904;2022-07-23T08:30:18;17.40;;;14.10;;
66089;SDS011;53113;45.602;11.904;2022-07-23T08:38:02;15.30;;;13.00;;
66089;SDS011;53113;45.602;11.904;2022-07-23T08:40:32;14.90;;;13.40;;
66089;SDS011;53113;45.602;11.904;2022-07-23T08:42:59;15.80;;;12.80;;
66089;SDS011;53113;45.602;11.904;2022-07-23T08:45:29;15.00;;;13.50;;
66089;SDS011;53113;45.602;11.904;2022-07-23T08:47:56;16.20;;;13.60;;
66089;SDS011;53113;45.602;11.904;2022-07-23T08:50:24;17.20;;;13.30;;
66089;SDS011;53113;45.602;11.904;2022-07-23T08:52:51;16.40;;;14.70;;
66089;SDS011;53113;45.602;11.904;2022-07-23T08:55:19;16.30;;;14.40;;
66089;SDS011;53113;45.602;11.904;2022-07-23T09:00:13;16.10;;;13.70;;
66089;SDS011;53113;45.602;11.904;2022-07-23T09:02:40;14.70;;;13.20;;
66089;SDS011;53113;45.602;11.904;2022-07-23T09:05:08;15.40;;;13.10;;
66089;SDS011;53113;45.602;11.904;2022-07-23T09:07:36;15.00;;;13.30;;
66089;SDS011;53113;45.602;11.904;2022-07-23T09:10:09;16.60;;;13.30;;
66089;SDS011;53113;45.602;11.904;2022-07-23T09:12:36;14.90;;;13.40;;
66089;SDS011;53113;45.602;11.904;2022-07-23T09:15:04;15.10;;;13.40;;
66089;SDS011;53113;45.602;11.904;2022-07-23T09:17:41;15.50;;;13.70;;
66089;SDS011;53113;45.602;11.904;2022-07-23T09:20:15;16.20;;;14.20;;
66089;SDS011;53113;45.602;11.904;2022-07-23T09:22:45;15.70;;;13.50;;
66089;SDS011;53113;45.602;11.904;2022-07-23T09:25:16;16.20;;;14.50;;
66089;SDS011;53113;45.602;11.904;2022-07-23T09:27:47;15.80;;;13.90;;
66089;SDS011;53113;45.602;11.904;2022-07-23T09:30:13;16.90;;;15.10;;
66089;SDS011;53113;45.602;11.904;2022-07-23T09:32:40;15.90;;;13.50;;
66089;SDS011;53113;45.602;11.904;2022-07-23T09:35:05;15.50;;;13.90;;
66089;SDS011;53113;45.602;11.904;2022-07-23T09:37:31;14.70;;;13.20;;
66089;SDS011;53113;45.602;11.904;2022-07-23T09:40:06;15.60;;;14.00;;
66089;SDS011;53113;45.602;11.904;2022-07-23T09:42:39;16.60;;;14.60;;
66089;SDS011;53113;45.602;11.904;2022-07-23T09:45:06;18.10;;;16.10;;
66089;SDS011;53113;45.602;11.904;2022-07-23T09:47:35;15.40;;;13.60;;
66089;SDS011;53113;45.602;11.904;2022-07-23T09:50:05;14.90;;;13.40;;
66089;SDS011;53113;45.602;11.904;2022-07-23T09:52:45;13.30;;;12.00;;
66089;SDS011;53113;45.602;11.904;2022-07-23T09:55:13;14.10;;;12.70;;
66089;SDS011;53113;45.602;11.904;2022-07-23T10:00:10;13.80;;;12.30;;
66089;SDS011;53113;45.602;11.904;2022-07-23T10:02:38;15.10;;;13.60;;
66089;SDS011;53113;45.602;11.904;2022-07-23T10:05:05;14.90;;;12.30;;
66089;SDS011;53113;45.602;11.904;2022-07-23T10:07:33;16.00;;;12.40;;
66089;SDS011;53113;45.602;11.904;2022-07-23T10:10:02;15.70;;;11.80;;
66089;SDS011;53113;45.602;11.904;2022-07-23T10:14:56;11.80;;;10.60;;
66089;SDS011;53113;45.602;11.904;2022-07-23T10:17:23;11.90;;;9.80;;
66089;SDS011;53113;45.602;11.904;2022-07-23T10:19:49;11.50;;;9.70;;
66089;SDS011;53113;45.602;11.904;2022-07-23T10:22:18;14.00;;;11.30;;
66089;SDS011;53113;45.602;11.904;2022-07-23T10:39:24;12.20;;;9.60;;
66089;SDS011;53113;45.602;11.904;2022-07-23T10:42:07;12.20;;;9.10;;
66089;SDS011;53113;45.602;11.904;2022-07-23T10:44:53;10.80;;;9.10;;
66089;SDS011;53113;45.602;11.904;2022-07-23T10:47:25;12.00;;;8.80;;
66089;SDS011;53113;45.602;11.904;2022-07-23T10:50:25;11.60;;;8.80;;
66089;SDS011;53113;45.602;11.904;2022-07-23T10:55:42;11.10;;;8.60;;
66089;SDS011;53113;45.602;11.904;2022-07-23T10:58:10;9.50;;;7.60;;
66089;SDS011;53113;45.602;11.904;2022-07-23T11:00:37;10.20;;;7.40;;
66089;SDS011;53113;45.602;11.904;2022-07-23T11:03:04;8.90;;;6.70;;
66089;SDS011;53113;45.602;11.904;2022-07-23T11:05:50;8.80;;;6.30;;
66089;SDS011;53113;45.602;11.904;2022-07-23T11:08:19;8.90;;;6.60;;
66089;SDS011;53113;45.602;11.904;2022-07-23T11:34:35;9.50;;;6.90;;
66089;SDS011;53113;45.602;11.904;2022-07-23T11:37:01;8.60;;;7.20;;
66089;SDS011;53113;45.602;11.904;2022-07-23T11:39:29;7.90;;;6.70;;
66089;SDS011;53113;45.602;11.904;2022-07-23T11:41:56;10.20;;;6.50;;
66089;SDS011;53113;45.602;11.904;2022-07-23T11:44:24;10.00;;;6.90;;
66089;SDS011;53113;45.602;11.904;2022-07-23T11:46:55;10.20;;;7.80;;
66089;SDS011;53113;45.602;11.904;2022-07-23T11:49:23;8.50;;;6.50;;
66089;SDS011;53113;45.602;11.904;2022-07-23T11:52:03;10.60;;;6.90;;
66089;SDS011;53113;45.602;11.904;2022-07-23T11:54:30;11.80;;;7.00;;
66089;SDS011;53113;45.602;11.904;2022-07-23T11:56:56;8.20;;;6.60;;
66089;SDS011;53113;45.602;11.904;2022-07-23T11:59:24;9.60;;;6.90;;
66089;SDS011;53113;45.602;11.904;2022-07-23T12:01:57;8.60;;;7.00;;
66089;SDS011;53113;45.602;11.904;2022-07-23T12:04:25;9.50;;;7.10;;
66089;SDS011;53113;45.602;11.904;2022-07-23T12:07:02;9.50;;;7.00;;
66089;SDS011;53113;45.602;11.904;2022-07-23T12:09:28;9.20;;;7.10;;
66089;SDS011;53113;45.602;11.904;2022-07-23T12:11:57;9.30;;;6.60;;
66089;SDS011;53113;45.602;11.904;2022-07-23T12:14:24;11.90;;;8.00;;
66089;SDS011;53113;45.602;11.904;2022-07-23T12:17:08;11.50;;;7.70;;
66089;SDS011;53113;45.602;11.904;2022-07-23T12:19:36;9.40;;;7.60;;
66089;SDS011;53113;45.602;11.904;2022-07-23T12:22:02;9.40;;;7.60;;
66089;SDS011;53113;45.602;11.904;2022-07-23T12:24:28;10.90;;;6.90;;
66089;SDS011;53113;45.602;11.904;2022-07-23T12:27:10;8.40;;;6.30;;
66089;SDS011;53113;45.602;11.904;2022-07-23T12:29:42;8.10;;;5.50;;
66089;SDS011;53113;45.602;11.904;2022-07-23T12:32:21;7.90;;;5.70;;
66089;SDS011;53113;45.602;11.904;2022-07-23T12:35:02;8.70;;;6.10;;
66089;SDS011;53113;45.602;11.904;2022-07-23T12:37:33;8.60;;;5.90;;
66089;SDS011;53113;45.602;11.904;2022-07-23T12:40:17;9.80;;;6.20;;
66089;SDS011;53113;45.602;11.904;2022-07-23T12:42:53;8.20;;;6.50;;
66089;SDS011;53113;45.602;11.904;2022-07-23T12:45:23;8.60;;;6.70;;
66089;SDS011;53113;45.602;11.904;2022-07-23T12:48:01;7.50;;;6.20;;
66089;SDS011;53113;45.602;11.904;2022-07-23T12:50:42;9.20;;;6.60;;
66089;SDS011;53113;45.602;11.904;2022-07-23T12:53:12;10.50;;;6.90;;
66089;SDS011;53113;45.602;11.904;2022-07-23T12:56:13;8.70;;;6.60;;
66089;SDS011;53113;45.602;11.904;2022-07-23T12:58:47;9.90;;;7.00;;
66089;SDS011;53113;45.602;11.904;2022-07-23T13:04:04;9.80;;;7.40;;
66089;SDS011;53113;45.602;11.904;2022-07-23T13:06:32;8.70;;;6.90;;
66089;SDS011;53113;45.602;11.904;2022-07-23T13:08:59;8.90;;;6.90;;
66089;SDS011;53113;45.602;11.904;2022-07-23T13:11:28;10.00;;;6.10;;
66089;SDS011;53113;45.602;11.904;2022-07-23T13:13:54;11.90;;;6.40;;
66089;SDS011;53113;45.602;11.904;2022-07-23T13:16:20;9.00;;;5.90;;
66089;SDS011;53113;45.602;11.904;2022-07-23T13:18:46;10.90;;;6.50;;
66089;SDS011;53113;45.602;11.904;2022-07-23T13:21:12;9.70;;;6.70;;
66089;SDS011;53113;45.602;11.904;2022-07-23T13:23:37;8.40;;;6.30;;
66089;SDS011;53113;45.602;11.904;2022-07-23T13:26:03;9.20;;;6.40;;
66089;SDS011;53113;45.602;11.904;2022-07-23T13:28:29;9.60;;;6.40;;
66089;SDS011;53113;45.602;11.904;2022-07-23T13:30:55;9.90;;;6.50;;
66089;SDS011;53113;45.602;11.904;2022-07-23T13:33:22;9.20;;;6.30;;
66089;SDS011;53113;45.602;11.904;2022-07-23T13:35:50;8.70;;;7.40;;
66089;SDS011;53113;45.602;11.904;2022-07-23T13:38:17;9.30;;;8.20;;
66089;SDS011;53113;45.602;11.904;2022-07-23T13:40:44;10.00;;;7.60;;
66089;SDS011;53113;45.602;11.904;2022-07-23T13:43:13;9.00;;;7.60;;
66089;SDS011;53113;45.602;11.904;2022-07-23T13:45:41;9.20;;;6.60;;
66089;SDS011;53113;45.602;11.904;2022-07-23T13:48:07;8.30;;;6.60;;
66089;SDS011;53113;45.602;11.904;2022-07-23T13:50:34;10.10;;;8.30;;
66089;SDS011;53113;45.602;11.904;2022-07-23T13:55:29;10.40;;;8.20;;
66089;SDS011;53113;45.602;11.904;2022-07-23T13:57:56;11.60;;;8.70;;
66089;SDS011;53113;45.602;11.904;2022-07-23T14:00:23;9.70;;;8.50;;
66089;SDS011;53113;45.602;11.904;2022-07-23T14:02:49;12.70;;;8.90;;
66089;SDS011;53113;45.602;11.904;2022-07-23T14:05:15;12.20;;;8.30;;
66089;SDS011;53113;45.602;11.904;2022-07-23T14:07:42;9.20;;;8.20;;
66089;SDS011;53113;45.602;11.904;2022-07-23T14:10:09;10.00;;;8.40;;
66089;SDS011;53113;45.602;11.904;2022-07-23T14:12:36;12.10;;;8.90;;
66089;SDS011;53113;45.602;11.904;2022-07-23T14:15:04;9.40;;;8.30;;
66089;SDS011;53113;45.602;11.904;2022-07-23T14:17:31;10.00;;;8.10;;
66089;SDS011;53113;45.602;11.904;2022-07-23T14:19:58;9.50;;;8.50;;
66089;SDS011;53113;45.602;11.904;2022-07-23T14:22:24;11.70;;;9.10;;
66089;SDS011;53113;45.602;11.904;2022-07-23T14:24:50;11.30;;;8.70;;
66089;SDS011;53113;45.602;11.904;2022-07-23T14:27:16;9.50;;;8.50;;
66089;SDS011;53113;45.602;11.904;2022-07-23T14:29:43;10.30;;;9.00;;
66089;SDS011;53113;45.602;11.904;2022-07-23T14:32:09;9.90;;;8.80;;
66089;SDS011;53113;45.602;11.904;2022-07-23T14:34:35;12.10;;;9.60;;
66089;SDS011;53113;45.602;11.904;2022-07-23T14:37:00;10.30;;;8.80;;
66089;SDS011;53113;45.602;11.904;2022-07-23T14:39:26;10.50;;;9.00;;
66089;SDS011;53113;45.602;11.904;2022-07-23T14:41:52;11.70;;;8.80;;
66089;SDS011;53113;45.602;11.904;2022-07-23T14:44:19;13.00;;;9.70;;
66089;SDS011;53113;45.602;11.904;2022-07-23T14:46:44;11.10;;;8.60;;
66089;SDS011;53113;45.602;11.904;2022-07-23T14:49:10;10.00;;;8.90;;
66089;SDS011;53113;45.602;11.904;2022-07-23T14:51:36;11.80;;;8.70;;
66089;SDS011;53113;45.602;11.904;2022-07-23T14:54:02;11.00;;;8.60;;
66089;SDS011;53113;45.602;11.904;2022-07-23T14:56:31;10.80;;;9.00;;
66089;SDS011;53113;45.602;11.904;2022-07-23T14:58:58;10.20;;;8.70;;
66089;SDS011;53113;45.602;11.904;2022-07-23T15:01:24;11.00;;;8.90;;
66089;SDS011;53113;45.602;11.904;2022-07-23T15:03:50;11.40;;;8.60;;
66089;SDS011;53113;45.602;11.904;2022-07-23T15:06:16;11.20;;;8.80;;
66089;SDS011;53113;45.602;11.904;2022-07-23T15:08:43;11.00;;;8.20;;
66089;SDS011;53113;45.602;11.904;2022-07-23T15:11:09;10.90;;;8.20;;
66089;SDS011;53113;45.602;11.904;2022-07-23T15:13:35;10.60;;;8.20;;
66089;SDS011;53113;45.602;11.904;2022-07-23T15:16:02;10.60;;;8.40;;
66089;SDS011;53113;45.602;11.904;2022-07-23T15:18:29;11.30;;;8.20;;
66089;SDS011;53113;45.602;11.904;2022-07-23T15:20:56;11.70;;;8.60;;
66089;SDS011;53113;45.602;11.904;2022-07-23T15:23:23;10.60;;;8.00;;
66089;SDS011;53113;45.602;11.904;2022-07-23T15:25:49;10.60;;;8.10;;